AFL1446 UHWW-UIII
Flight info
| Callsign | AFL1446 |
|---|---|
| Flight time | 3h 26m |
| Altitude | 37000 |
| Route | DOLMA2G DOLMA B356 TD B355 HAB/K0919F360 L168 IVADA A946 TORMA N992 GISEL/K0902F380 N992 GU G229 NIKTO P873 KUDAR A807 USONA USONA5B |
| Aircraft | B77W/H-SDE1E2E3FGHIJ2J3J4J5M1RWXY/LB1D1 |
Departure
| Time | 2026-04-22 00:07 |
|---|---|
| Airport | Vladivostok International Airport (UHWW) |
Arrival
| Time | 2026-04-22 03:33 |
|---|---|
| Airport | Irkutsk International Airport (UIII) |
| Time | Latitude | Longitude | Altitude | Speed | Heading |
|---|---|---|---|---|---|
| 2026-04-21 23:34 | 43.39762 | 132.16551 | 38 ft | 0 kts | 152° |
| 2026-04-21 23:57 | 43.39777 | 132.16540 | 36 ft | 4 kts | 152° |
| 2026-04-21 23:57 | 43.39799 | 132.16520 | 36 ft | 4 kts | 133° |
| 2026-04-21 23:57 | 43.39814 | 132.16490 | 38 ft | 4 kts | 104° |
| 2026-04-21 23:58 | 43.39815 | 132.16454 | 38 ft | 4 kts | 77° |
| 2026-04-21 23:58 | 43.39806 | 132.16420 | 35 ft | 4 kts | 62° |
| 2026-04-21 23:58 | 43.39803 | 132.16411 | 35 ft | 0 kts | 62° |
| 2026-04-22 00:02 | 43.39807 | 132.16422 | 38 ft | 6 kts | 62° |
| 2026-04-22 00:02 | 43.39841 | 132.16508 | 38 ft | 11 kts | 62° |
| 2026-04-22 00:03 | 43.39878 | 132.16602 | 38 ft | 11 kts | 62° |
| 2026-04-22 00:03 | 43.39915 | 132.16697 | 38 ft | 11 kts | 62° |
| 2026-04-22 00:03 | 43.39952 | 132.16791 | 38 ft | 11 kts | 61° |
| 2026-04-22 00:03 | 43.39990 | 132.16885 | 38 ft | 11 kts | 61° |
| 2026-04-22 00:04 | 43.40027 | 132.16979 | 38 ft | 11 kts | 61° |
| 2026-04-22 00:04 | 43.40070 | 132.17067 | 38 ft | 11 kts | 32° |
| 2026-04-22 00:04 | 43.40148 | 132.17064 | 38 ft | 12 kts | 336° |
| 2026-04-22 00:04 | 43.40219 | 132.17011 | 38 ft | 12 kts | 331° |
| 2026-04-22 00:05 | 43.40290 | 132.16956 | 38 ft | 12 kts | 330° |
| 2026-04-22 00:05 | 43.40361 | 132.16902 | 37 ft | 12 kts | 330° |
| 2026-04-22 00:05 | 43.40423 | 132.16834 | 37 ft | 12 kts | 293° |
| 2026-04-22 00:05 | 43.40405 | 132.16727 | 37 ft | 12 kts | 242° |
| 2026-04-22 00:06 | 43.40380 | 132.16662 | 36 ft | 0 kts | 242° |
| 2026-04-22 00:06 | 43.40237 | 132.16305 | 37 ft | 92 kts | 241° |
| 2026-04-22 00:06 | 43.39777 | 132.15155 | 51 ft | 177 kts | 240° |
| 2026-04-22 00:07 | 43.39151 | 132.13688 | 1104 ft | 173 kts | 243° |
| 2026-04-22 00:07 | 43.38590 | 132.12285 | 2376 ft | 170 kts | 248° |
| 2026-04-22 00:07 | 43.37983 | 132.10744 | 2736 ft | 198 kts | 248° |
| 2026-04-22 00:07 | 43.37269 | 132.08941 | 2995 ft | 230 kts | 246° |
| 2026-04-22 00:08 | 43.36478 | 132.06980 | 3813 ft | 239 kts | 246° |
| 2026-04-22 00:08 | 43.35655 | 132.04952 | 4753 ft | 245 kts | 246° |
| 2026-04-22 00:08 | 43.34826 | 132.02911 | 5796 ft | 243 kts | 248° |
| 2026-04-22 00:08 | 43.34393 | 132.00719 | 6592 ft | 238 kts | 275° |
| 2026-04-22 00:09 | 43.34990 | 131.98081 | 8024 ft | 228 kts | 298° |
| 2026-04-22 00:09 | 43.63557 | 132.04772 | 29070 ft | 454 kts | 31° |
| 2026-04-22 00:09 | 43.82613 | 132.52754 | 37539 ft | 561 kts | 79° |
| 2026-04-22 00:09 | 43.83269 | 132.58095 | 37388 ft | 563 kts | 76° |
| 2026-04-22 00:10 | 43.84052 | 132.63454 | 37244 ft | 570 kts | 75° |
| 2026-04-22 00:10 | 43.85327 | 132.68634 | 37022 ft | 567 kts | 56° |
| 2026-04-22 00:10 | 43.87576 | 132.73049 | 36843 ft | 558 kts | 39° |
| 2026-04-22 00:10 | 43.90380 | 132.76692 | 36694 ft | 549 kts | 30° |
| 2026-04-22 00:11 | 43.93385 | 132.79940 | 36503 ft | 545 kts | 27° |
| 2026-04-22 00:11 | 43.96406 | 132.83087 | 36319 ft | 543 kts | 28° |
| 2026-04-22 00:11 | 43.99376 | 132.86336 | 36360 ft | 546 kts | 31° |
| 2026-04-22 00:11 | 44.02281 | 132.89752 | 36621 ft | 549 kts | 33° |
| 2026-04-22 00:12 | 44.05138 | 132.93287 | 36699 ft | 552 kts | 34° |
| 2026-04-22 00:12 | 44.10792 | 133.00468 | 36724 ft | 548 kts | 34° |
| 2026-04-22 00:13 | 44.16420 | 133.07524 | 36746 ft | 543 kts | 33° |
| 2026-04-22 00:13 | 44.22052 | 133.14363 | 36731 ft | 537 kts | 30° |
| 2026-04-22 00:14 | 44.27972 | 133.20593 | 36739 ft | 530 kts | 26° |
| 2026-04-22 00:14 | 44.33998 | 133.26538 | 36744 ft | 532 kts | 27° |
| 2026-04-22 00:15 | 44.40011 | 133.32587 | 36739 ft | 534 kts | 28° |
| 2026-04-22 00:15 | 44.45989 | 133.38778 | 36722 ft | 535 kts | 28° |
| 2026-04-22 00:16 | 44.51959 | 133.45023 | 36735 ft | 536 kts | 29° |
| 2026-04-22 00:16 | 44.57935 | 133.51274 | 36725 ft | 535 kts | 29° |
| 2026-04-22 00:17 | 44.63899 | 133.57514 | 36721 ft | 534 kts | 29° |
| 2026-04-22 00:17 | 44.69852 | 133.63750 | 36732 ft | 534 kts | 29° |
| 2026-04-22 00:18 | 44.75796 | 133.69996 | 36725 ft | 533 kts | 29° |
| 2026-04-22 00:18 | 44.81727 | 133.76250 | 36731 ft | 532 kts | 29° |
| 2026-04-22 00:19 | 44.87637 | 133.82495 | 36729 ft | 531 kts | 30° |
| 2026-04-22 00:19 | 44.93551 | 133.88734 | 36722 ft | 530 kts | 28° |
| 2026-04-22 00:20 | 44.99547 | 133.94752 | 36714 ft | 528 kts | 27° |
| 2026-04-22 00:20 | 45.05586 | 134.00668 | 36722 ft | 528 kts | 27° |
| 2026-04-22 00:21 | 45.11609 | 134.06620 | 36730 ft | 528 kts | 28° |
| 2026-04-22 00:21 | 45.17609 | 134.12628 | 36712 ft | 528 kts | 28° |
| 2026-04-22 00:22 | 45.23597 | 134.18658 | 36713 ft | 527 kts | 28° |
| 2026-04-22 00:22 | 45.29566 | 134.24683 | 36706 ft | 526 kts | 28° |
| 2026-04-22 00:23 | 45.35479 | 134.30661 | 36708 ft | 524 kts | 28° |
| 2026-04-22 00:23 | 45.41416 | 134.36672 | 36711 ft | 523 kts | 29° |
| 2026-04-22 00:24 | 45.47339 | 134.42685 | 36704 ft | 522 kts | 29° |
| 2026-04-22 00:24 | 45.53248 | 134.48704 | 36702 ft | 522 kts | 29° |
| 2026-04-22 00:25 | 45.59153 | 134.54730 | 36702 ft | 522 kts | 29° |
| 2026-04-22 00:25 | 45.65057 | 134.60774 | 36714 ft | 522 kts | 30° |
| 2026-04-22 00:26 | 45.70000 | 134.65847 | 36694 ft | 522 kts | 30° |
| 2026-04-22 00:26 | 45.75897 | 134.71916 | 36696 ft | 522 kts | 30° |
| 2026-04-22 00:27 | 45.81747 | 134.77952 | 36677 ft | 522 kts | 30° |
| 2026-04-22 00:27 | 45.87694 | 134.83864 | 36680 ft | 517 kts | 25° |
| 2026-04-22 00:27 | 45.90834 | 134.86240 | 36667 ft | 504 kts | 14° |
| 2026-04-22 00:28 | 45.94163 | 134.87516 | 36678 ft | 491 kts | 1° |
| 2026-04-22 00:28 | 45.97531 | 134.87740 | 36677 ft | 480 kts | 353° |
| 2026-04-22 00:28 | 46.00870 | 134.87718 | 36670 ft | 481 kts | 354° |
| 2026-04-22 00:29 | 46.07654 | 134.88421 | 36695 ft | 496 kts | 1° |
| 2026-04-22 00:29 | 46.14540 | 134.89676 | 36669 ft | 499 kts | 1° |
| 2026-04-22 00:30 | 46.21430 | 134.90791 | 36666 ft | 498 kts | 0° |
| 2026-04-22 00:30 | 46.28332 | 134.91727 | 36658 ft | 497 kts | 360° |
| 2026-04-22 00:31 | 46.35214 | 134.92613 | 36653 ft | 496 kts | 360° |
| 2026-04-22 00:31 | 46.42080 | 134.93512 | 36658 ft | 495 kts | 0° |
| 2026-04-22 00:32 | 46.48942 | 134.94431 | 36654 ft | 495 kts | 1° |
| 2026-04-22 00:32 | 46.55791 | 134.95358 | 36645 ft | 494 kts | 1° |
| 2026-04-22 00:33 | 46.62625 | 134.96285 | 36636 ft | 493 kts | 1° |
| 2026-04-22 00:33 | 46.69455 | 134.97210 | 36652 ft | 493 kts | 1° |
| 2026-04-22 00:34 | 46.76283 | 134.98133 | 36643 ft | 493 kts | 1° |
| 2026-04-22 00:34 | 46.83111 | 134.99061 | 36636 ft | 493 kts | 1° |
| 2026-04-22 00:35 | 46.89944 | 134.99928 | 36631 ft | 492 kts | 1° |
| 2026-04-22 00:35 | 46.96772 | 135.00758 | 36631 ft | 492 kts | 1° |
| 2026-04-22 00:36 | 47.03561 | 135.01590 | 36625 ft | 493 kts | 1° |
| 2026-04-22 00:36 | 47.10397 | 135.02442 | 36623 ft | 493 kts | 1° |
| 2026-04-22 00:37 | 47.17232 | 135.03300 | 36617 ft | 493 kts | 1° |
| 2026-04-22 00:37 | 47.24071 | 135.04160 | 36620 ft | 493 kts | 1° |
| 2026-04-22 00:38 | 47.30912 | 135.05019 | 36620 ft | 494 kts | 1° |
| 2026-04-22 00:38 | 47.37762 | 135.05883 | 36608 ft | 494 kts | 1° |
| 2026-04-22 00:39 | 47.44603 | 135.06751 | 36606 ft | 493 kts | 2° |
| 2026-04-22 00:39 | 47.51442 | 135.07622 | 36605 ft | 493 kts | 2° |
| 2026-04-22 00:40 | 47.58306 | 135.08493 | 36895 ft | 496 kts | 2° |
| 2026-04-22 00:40 | 47.61740 | 135.08931 | 37216 ft | 494 kts | 2° |
| 2026-04-22 00:40 | 47.65151 | 135.09368 | 37592 ft | 491 kts | 2° |
| 2026-04-22 00:41 | 47.71955 | 135.10240 | 37602 ft | 487 kts | 2° |
| 2026-04-22 00:41 | 47.78653 | 135.11100 | 37592 ft | 481 kts | 2° |
| 2026-04-22 00:42 | 47.85326 | 135.11958 | 37588 ft | 481 kts | 2° |
| 2026-04-22 00:42 | 47.92003 | 135.12831 | 37586 ft | 482 kts | 2° |
| 2026-04-22 00:43 | 47.98679 | 135.13700 | 37585 ft | 482 kts | 2° |
| 2026-04-22 00:43 | 48.05373 | 135.14566 | 37584 ft | 483 kts | 2° |
| 2026-04-22 00:44 | 48.12072 | 135.15433 | 37583 ft | 484 kts | 3° |
| 2026-04-22 00:44 | 48.18747 | 135.16302 | 37579 ft | 485 kts | 3° |
| 2026-04-22 00:45 | 48.25471 | 135.17181 | 37584 ft | 485 kts | 3° |
| 2026-04-22 00:45 | 48.32199 | 135.18061 | 37579 ft | 486 kts | 3° |
| 2026-04-22 00:46 | 48.38939 | 135.18946 | 37581 ft | 486 kts | 4° |
| 2026-04-22 00:46 | 48.45670 | 135.19833 | 37578 ft | 486 kts | 4° |
| 2026-04-22 00:47 | 48.52410 | 135.20340 | 37563 ft | 483 kts | 352° |
| 2026-04-22 00:47 | 48.55634 | 135.19135 | 37605 ft | 477 kts | 333° |
| 2026-04-22 00:47 | 48.58385 | 135.16409 | 37578 ft | 473 kts | 314° |
| 2026-04-22 00:48 | 48.62827 | 135.09186 | 37592 ft | 472 kts | 315° |
| 2026-04-22 00:48 | 48.67789 | 135.02510 | 37595 ft | 481 kts | 319° |
| 2026-04-22 00:49 | 48.72884 | 134.95901 | 37593 ft | 483 kts | 318° |
| 2026-04-22 00:49 | 48.77899 | 134.89110 | 37590 ft | 484 kts | 317° |
| 2026-04-22 00:50 | 48.82870 | 134.82226 | 37585 ft | 484 kts | 317° |
| 2026-04-22 00:50 | 48.87804 | 134.75393 | 37596 ft | 483 kts | 317° |
| 2026-04-22 00:51 | 48.92765 | 134.68531 | 37596 ft | 481 kts | 317° |
| 2026-04-22 00:51 | 48.97713 | 134.61672 | 37595 ft | 481 kts | 317° |
| 2026-04-22 00:52 | 49.02651 | 134.54816 | 37598 ft | 480 kts | 317° |
| 2026-04-22 00:52 | 49.07531 | 134.47873 | 37606 ft | 479 kts | 314° |
| 2026-04-22 00:53 | 49.11814 | 134.40101 | 37599 ft | 478 kts | 304° |
| 2026-04-22 00:53 | 49.15327 | 134.31468 | 37609 ft | 480 kts | 301° |
| 2026-04-22 00:54 | 49.18789 | 134.22733 | 37619 ft | 481 kts | 302° |
| 2026-04-22 00:54 | 49.22410 | 134.14097 | 37615 ft | 483 kts | 303° |
| 2026-04-22 00:55 | 49.26112 | 134.05482 | 37610 ft | 485 kts | 303° |
| 2026-04-22 00:55 | 49.31658 | 133.92495 | 37617 ft | 486 kts | 303° |
| 2026-04-22 00:56 | 49.35321 | 133.83832 | 37616 ft | 487 kts | 303° |
| 2026-04-22 00:56 | 49.39002 | 133.75100 | 37613 ft | 487 kts | 303° |
| 2026-04-22 00:57 | 49.42678 | 133.66360 | 37620 ft | 487 kts | 303° |
| 2026-04-22 00:57 | 49.46351 | 133.57626 | 37620 ft | 486 kts | 303° |
| 2026-04-22 00:58 | 49.50022 | 133.48893 | 37623 ft | 486 kts | 303° |
| 2026-04-22 00:58 | 49.53678 | 133.40166 | 37624 ft | 485 kts | 303° |
| 2026-04-22 00:59 | 49.57324 | 133.31428 | 37627 ft | 485 kts | 303° |
| 2026-04-22 00:59 | 49.60967 | 133.22665 | 37633 ft | 485 kts | 303° |
| 2026-04-22 01:00 | 49.64597 | 133.13906 | 37636 ft | 485 kts | 303° |
| 2026-04-22 01:00 | 49.68223 | 133.05131 | 37640 ft | 485 kts | 303° |
| 2026-04-22 01:01 | 49.71844 | 132.96331 | 37635 ft | 485 kts | 303° |
| 2026-04-22 01:01 | 49.75454 | 132.87532 | 37642 ft | 485 kts | 303° |
| 2026-04-22 01:02 | 49.79035 | 132.78777 | 37638 ft | 485 kts | 303° |
| 2026-04-22 01:02 | 49.82634 | 132.69945 | 37635 ft | 485 kts | 303° |
| 2026-04-22 01:03 | 49.86231 | 132.61088 | 37642 ft | 485 kts | 303° |
| 2026-04-22 01:03 | 49.89821 | 132.52221 | 37648 ft | 486 kts | 302° |
| 2026-04-22 01:04 | 49.93408 | 132.43331 | 37653 ft | 487 kts | 302° |
| 2026-04-22 01:04 | 49.96996 | 132.34407 | 37644 ft | 487 kts | 302° |
| 2026-04-22 01:05 | 50.00584 | 132.25456 | 37655 ft | 488 kts | 302° |
| 2026-04-22 01:05 | 50.04325 | 132.16656 | 37655 ft | 488 kts | 308° |
| 2026-04-22 01:06 | 50.08836 | 132.08797 | 37653 ft | 486 kts | 317° |
| 2026-04-22 01:06 | 50.13788 | 132.01601 | 37658 ft | 487 kts | 317° |
| 2026-04-22 01:07 | 50.18550 | 131.94048 | 37679 ft | 489 kts | 314° |
| 2026-04-22 01:07 | 50.23229 | 131.86332 | 37665 ft | 490 kts | 315° |
| 2026-04-22 01:08 | 50.27944 | 131.78617 | 37671 ft | 492 kts | 315° |
| 2026-04-22 01:08 | 50.32680 | 131.70883 | 37683 ft | 493 kts | 315° |
| 2026-04-22 01:09 | 50.37423 | 131.63109 | 37679 ft | 494 kts | 315° |
| 2026-04-22 01:09 | 50.42159 | 131.55313 | 37689 ft | 494 kts | 314° |
| 2026-04-22 01:10 | 50.46894 | 131.47488 | 37686 ft | 494 kts | 314° |
| 2026-04-22 01:10 | 50.51592 | 131.39702 | 37691 ft | 494 kts | 314° |
| 2026-04-22 01:11 | 50.56309 | 131.31859 | 37691 ft | 493 kts | 314° |
| 2026-04-22 01:11 | 50.61008 | 131.24022 | 37693 ft | 492 kts | 314° |
| 2026-04-22 01:12 | 50.65697 | 131.16178 | 37691 ft | 492 kts | 314° |
| 2026-04-22 01:12 | 50.70378 | 131.08322 | 37698 ft | 491 kts | 314° |
| 2026-04-22 01:13 | 50.74287 | 131.01742 | 37701 ft | 490 kts | 314° |
| 2026-04-22 01:13 | 50.78951 | 130.93872 | 37709 ft | 490 kts | 314° |
| 2026-04-22 01:14 | 50.83609 | 130.85988 | 37706 ft | 490 kts | 314° |
| 2026-04-22 01:14 | 50.88228 | 130.78145 | 37706 ft | 490 kts | 314° |
| 2026-04-22 01:15 | 50.92872 | 130.70234 | 37713 ft | 490 kts | 314° |
| 2026-04-22 01:15 | 50.97512 | 130.62303 | 37718 ft | 491 kts | 314° |
| 2026-04-22 01:16 | 51.02153 | 130.54347 | 37717 ft | 491 kts | 314° |
| 2026-04-22 01:16 | 51.06794 | 130.46365 | 37726 ft | 491 kts | 314° |
| 2026-04-22 01:17 | 51.11429 | 130.38367 | 37730 ft | 492 kts | 314° |
| 2026-04-22 01:17 | 51.16061 | 130.30349 | 37728 ft | 492 kts | 314° |
| 2026-04-22 01:18 | 51.20690 | 130.22310 | 37730 ft | 492 kts | 314° |
| 2026-04-22 01:18 | 51.25318 | 130.14247 | 37740 ft | 492 kts | 313° |
| 2026-04-22 01:19 | 51.29942 | 130.06163 | 37730 ft | 493 kts | 314° |
| 2026-04-22 01:19 | 51.34566 | 129.98046 | 37751 ft | 494 kts | 313° |
| 2026-04-22 01:20 | 51.39144 | 129.89800 | 37747 ft | 496 kts | 313° |
| 2026-04-22 01:20 | 51.43694 | 129.81477 | 37756 ft | 497 kts | 312° |
| 2026-04-22 01:21 | 51.48254 | 129.73121 | 37759 ft | 498 kts | 312° |
| 2026-04-22 01:21 | 51.52820 | 129.64757 | 37759 ft | 499 kts | 312° |
| 2026-04-22 01:22 | 51.57367 | 129.56414 | 37775 ft | 499 kts | 312° |
| 2026-04-22 01:22 | 51.61937 | 129.48000 | 37760 ft | 500 kts | 312° |
| 2026-04-22 01:23 | 51.66505 | 129.39558 | 37770 ft | 500 kts | 312° |
| 2026-04-22 01:23 | 51.71066 | 129.31102 | 37774 ft | 499 kts | 312° |
| 2026-04-22 01:24 | 51.75615 | 129.22638 | 37785 ft | 499 kts | 312° |
| 2026-04-22 01:24 | 51.80156 | 129.14161 | 37786 ft | 499 kts | 312° |
| 2026-04-22 01:25 | 51.84691 | 129.05665 | 37787 ft | 499 kts | 312° |
| 2026-04-22 01:25 | 51.89228 | 128.97139 | 37790 ft | 499 kts | 311° |
| 2026-04-22 01:26 | 51.93753 | 128.88608 | 37799 ft | 499 kts | 311° |
| 2026-04-22 01:26 | 51.98275 | 128.80050 | 37804 ft | 500 kts | 311° |
| 2026-04-22 01:27 | 52.02791 | 128.71477 | 37807 ft | 500 kts | 311° |
| 2026-04-22 01:27 | 52.07303 | 128.62882 | 37806 ft | 500 kts | 311° |
| 2026-04-22 01:28 | 52.11812 | 128.54263 | 37824 ft | 500 kts | 311° |
| 2026-04-22 01:28 | 52.16307 | 128.45641 | 37824 ft | 500 kts | 311° |
| 2026-04-22 01:29 | 52.20803 | 128.36987 | 37836 ft | 500 kts | 311° |
| 2026-04-22 01:29 | 52.25298 | 128.28306 | 37832 ft | 500 kts | 311° |
| 2026-04-22 01:30 | 52.29781 | 128.19619 | 37839 ft | 500 kts | 311° |
| 2026-04-22 01:30 | 52.34256 | 128.10915 | 37856 ft | 500 kts | 311° |
| 2026-04-22 01:31 | 52.38702 | 128.02239 | 37869 ft | 501 kts | 311° |
| 2026-04-22 01:31 | 52.43178 | 127.93475 | 37857 ft | 501 kts | 310° |
| 2026-04-22 01:32 | 52.47647 | 127.84696 | 37873 ft | 502 kts | 310° |
| 2026-04-22 01:32 | 52.52110 | 127.75894 | 37869 ft | 503 kts | 310° |
| 2026-04-22 01:33 | 52.56581 | 127.67044 | 37872 ft | 503 kts | 310° |
| 2026-04-22 01:33 | 52.61037 | 127.58195 | 37881 ft | 502 kts | 310° |
| 2026-04-22 01:34 | 52.65485 | 127.49332 | 37882 ft | 502 kts | 310° |
| 2026-04-22 01:34 | 52.69914 | 127.40466 | 37893 ft | 501 kts | 310° |
| 2026-04-22 01:35 | 52.74310 | 127.31557 | 37906 ft | 501 kts | 309° |
| 2026-04-22 01:35 | 52.78694 | 127.22626 | 37888 ft | 500 kts | 309° |
| 2026-04-22 01:36 | 52.83077 | 127.13688 | 37899 ft | 500 kts | 309° |
| 2026-04-22 01:36 | 52.87454 | 127.04739 | 37910 ft | 500 kts | 309° |
| 2026-04-22 01:37 | 52.91799 | 126.95834 | 37912 ft | 500 kts | 309° |
| 2026-04-22 01:37 | 52.96169 | 126.86846 | 37912 ft | 500 kts | 309° |
| 2026-04-22 01:38 | 53.00530 | 126.77844 | 37914 ft | 500 kts | 309° |
| 2026-04-22 01:38 | 53.04884 | 126.68819 | 37932 ft | 500 kts | 309° |
| 2026-04-22 01:39 | 53.09229 | 126.59781 | 37941 ft | 500 kts | 309° |
| 2026-04-22 01:39 | 53.13570 | 126.50721 | 37935 ft | 500 kts | 309° |
| 2026-04-22 01:40 | 53.17904 | 126.41644 | 37932 ft | 500 kts | 309° |
| 2026-04-22 01:40 | 53.22226 | 126.32555 | 37937 ft | 500 kts | 309° |
| 2026-04-22 01:41 | 53.26545 | 126.23439 | 37942 ft | 500 kts | 308° |
| 2026-04-22 01:41 | 53.30858 | 126.14305 | 37949 ft | 500 kts | 308° |
| 2026-04-22 01:42 | 53.35162 | 126.05158 | 37944 ft | 500 kts | 308° |
| 2026-04-22 01:42 | 53.39455 | 125.95998 | 37948 ft | 500 kts | 308° |
| 2026-04-22 01:43 | 53.43736 | 125.86819 | 37933 ft | 497 kts | 307° |
| 2026-04-22 01:43 | 53.47173 | 125.76862 | 37959 ft | 495 kts | 292° |
| 2026-04-22 01:44 | 53.49211 | 125.65842 | 37964 ft | 495 kts | 281° |
| 2026-04-22 01:44 | 53.50530 | 125.54448 | 37963 ft | 499 kts | 281° |
| 2026-04-22 01:45 | 53.52142 | 125.43174 | 37964 ft | 501 kts | 284° |
| 2026-04-22 01:45 | 53.53981 | 125.31857 | 37961 ft | 503 kts | 284° |
| 2026-04-22 01:46 | 53.55721 | 125.20469 | 37956 ft | 503 kts | 283° |
| 2026-04-22 01:46 | 53.57356 | 125.09029 | 37956 ft | 502 kts | 282° |
| 2026-04-22 01:47 | 53.58951 | 124.97587 | 37956 ft | 501 kts | 282° |
| 2026-04-22 01:47 | 53.60538 | 124.86190 | 37955 ft | 500 kts | 282° |
| 2026-04-22 01:48 | 53.62120 | 124.74811 | 37958 ft | 498 kts | 282° |
| 2026-04-22 01:48 | 53.63690 | 124.63456 | 37965 ft | 497 kts | 282° |
| 2026-04-22 01:49 | 53.65246 | 124.52116 | 37959 ft | 496 kts | 282° |
| 2026-04-22 01:49 | 53.66788 | 124.40771 | 37964 ft | 496 kts | 282° |
| 2026-04-22 01:50 | 53.68316 | 124.29436 | 37956 ft | 496 kts | 282° |
| 2026-04-22 01:50 | 53.69837 | 124.18082 | 37963 ft | 495 kts | 282° |
| 2026-04-22 01:51 | 53.71346 | 124.06730 | 37951 ft | 495 kts | 282° |
| 2026-04-22 01:51 | 53.72831 | 123.95471 | 37965 ft | 495 kts | 282° |
| 2026-04-22 01:52 | 53.74314 | 123.84125 | 37946 ft | 494 kts | 281° |
| 2026-04-22 01:52 | 53.75786 | 123.72780 | 37954 ft | 494 kts | 281° |
| 2026-04-22 01:53 | 53.77248 | 123.61432 | 37949 ft | 494 kts | 281° |
| 2026-04-22 01:53 | 53.78668 | 123.50057 | 37946 ft | 494 kts | 279° |
| 2026-04-22 01:54 | 53.79398 | 123.38574 | 37945 ft | 488 kts | 269° |
| 2026-04-22 01:54 | 53.79103 | 123.27110 | 37965 ft | 489 kts | 264° |
| 2026-04-22 01:55 | 53.78641 | 123.15624 | 37962 ft | 490 kts | 265° |
| 2026-04-22 01:55 | 53.78341 | 123.04083 | 37968 ft | 492 kts | 267° |
| 2026-04-22 01:56 | 53.78140 | 122.92517 | 37960 ft | 492 kts | 267° |
| 2026-04-22 01:56 | 53.77939 | 122.80964 | 37966 ft | 491 kts | 267° |
| 2026-04-22 01:57 | 53.77710 | 122.69425 | 37957 ft | 491 kts | 267° |
| 2026-04-22 01:57 | 53.77458 | 122.57906 | 37966 ft | 490 kts | 266° |
| 2026-04-22 01:58 | 53.77197 | 122.46402 | 37967 ft | 489 kts | 266° |
| 2026-04-22 01:58 | 53.76926 | 122.34917 | 37978 ft | 489 kts | 266° |
| 2026-04-22 01:59 | 53.76649 | 122.23511 | 37967 ft | 489 kts | 266° |
| 2026-04-22 01:59 | 53.76359 | 122.12052 | 37977 ft | 488 kts | 267° |
| 2026-04-22 02:00 | 53.76084 | 122.00603 | 37975 ft | 487 kts | 267° |
| 2026-04-22 02:00 | 53.75817 | 121.89183 | 37988 ft | 486 kts | 267° |
| 2026-04-22 02:01 | 53.75585 | 121.79622 | 37981 ft | 486 kts | 266° |
| 2026-04-22 02:01 | 53.75246 | 121.66387 | 37978 ft | 485 kts | 266° |
| 2026-04-22 02:02 | 53.74991 | 121.56852 | 37977 ft | 484 kts | 266° |
| 2026-04-22 02:02 | 53.74676 | 121.45492 | 37978 ft | 484 kts | 266° |
| 2026-04-22 02:03 | 53.74354 | 121.34214 | 37980 ft | 484 kts | 266° |
| 2026-04-22 02:03 | 53.74018 | 121.22868 | 37981 ft | 483 kts | 266° |
| 2026-04-22 02:04 | 53.73495 | 121.05811 | 37980 ft | 482 kts | 266° |
| 2026-04-22 02:05 | 53.73138 | 120.94607 | 37982 ft | 480 kts | 266° |
| 2026-04-22 02:05 | 53.72769 | 120.83359 | 37985 ft | 479 kts | 266° |
| 2026-04-22 02:06 | 53.72390 | 120.72139 | 37982 ft | 478 kts | 266° |
| 2026-04-22 02:06 | 53.72002 | 120.60929 | 37991 ft | 478 kts | 266° |
| 2026-04-22 02:07 | 53.71603 | 120.49738 | 37999 ft | 477 kts | 265° |
| 2026-04-22 02:07 | 53.71195 | 120.38564 | 37995 ft | 477 kts | 265° |
| 2026-04-22 02:08 | 53.70774 | 120.27406 | 37984 ft | 476 kts | 266° |
| 2026-04-22 02:08 | 53.70345 | 120.16260 | 38001 ft | 475 kts | 265° |
| 2026-04-22 02:09 | 53.69908 | 120.05143 | 37992 ft | 475 kts | 265° |
| 2026-04-22 02:09 | 53.69460 | 119.94032 | 38002 ft | 475 kts | 265° |
| 2026-04-22 02:10 | 53.69002 | 119.82911 | 38004 ft | 475 kts | 265° |
| 2026-04-22 02:10 | 53.68535 | 119.71797 | 38006 ft | 475 kts | 265° |
| 2026-04-22 02:11 | 53.68015 | 119.60703 | 37995 ft | 475 kts | 264° |
| 2026-04-22 02:11 | 53.67440 | 119.49679 | 38007 ft | 475 kts | 264° |
| 2026-04-22 02:12 | 53.66851 | 119.38577 | 38004 ft | 475 kts | 265° |
| 2026-04-22 02:12 | 53.66261 | 119.27479 | 38009 ft | 475 kts | 265° |
| 2026-04-22 02:13 | 53.65666 | 119.16377 | 38013 ft | 476 kts | 265° |
| 2026-04-22 02:13 | 53.65063 | 119.05274 | 38009 ft | 476 kts | 265° |
| 2026-04-22 02:14 | 53.64447 | 118.94154 | 38018 ft | 476 kts | 264° |
| 2026-04-22 02:14 | 53.63820 | 118.83051 | 38016 ft | 476 kts | 264° |
| 2026-04-22 02:15 | 53.63184 | 118.71955 | 38020 ft | 476 kts | 264° |
| 2026-04-22 02:15 | 53.62537 | 118.60862 | 38021 ft | 476 kts | 264° |
| 2026-04-22 02:16 | 53.61879 | 118.49784 | 38017 ft | 474 kts | 264° |
| 2026-04-22 02:16 | 53.61214 | 118.38742 | 38008 ft | 473 kts | 264° |
| 2026-04-22 02:17 | 53.60542 | 118.27747 | 38011 ft | 472 kts | 264° |
| 2026-04-22 02:17 | 53.59861 | 118.16771 | 38014 ft | 471 kts | 264° |
| 2026-04-22 02:18 | 53.59171 | 118.05817 | 38006 ft | 470 kts | 264° |
| 2026-04-22 02:18 | 53.58476 | 117.94941 | 38016 ft | 470 kts | 264° |
| 2026-04-22 02:19 | 53.57767 | 117.84011 | 38013 ft | 470 kts | 264° |
| 2026-04-22 02:19 | 53.57049 | 117.73103 | 38012 ft | 469 kts | 264° |
| 2026-04-22 02:20 | 53.56321 | 117.62208 | 38015 ft | 468 kts | 264° |
| 2026-04-22 02:20 | 53.55585 | 117.51329 | 38020 ft | 467 kts | 264° |
| 2026-04-22 02:21 | 53.54841 | 117.40469 | 38026 ft | 467 kts | 264° |
| 2026-04-22 02:21 | 53.54087 | 117.29630 | 38027 ft | 466 kts | 264° |
| 2026-04-22 02:22 | 53.53326 | 117.18813 | 38033 ft | 466 kts | 264° |
| 2026-04-22 02:22 | 53.52554 | 117.07997 | 38031 ft | 466 kts | 264° |
| 2026-04-22 02:23 | 53.51774 | 116.97202 | 38039 ft | 465 kts | 264° |
| 2026-04-22 02:23 | 53.50986 | 116.86415 | 38039 ft | 465 kts | 264° |
| 2026-04-22 02:24 | 53.50236 | 116.75629 | 38054 ft | 465 kts | 265° |
| 2026-04-22 02:24 | 53.49523 | 116.64841 | 38047 ft | 464 kts | 264° |
| 2026-04-22 02:25 | 53.48738 | 116.54083 | 38039 ft | 464 kts | 264° |
| 2026-04-22 02:25 | 53.47933 | 116.43354 | 38043 ft | 463 kts | 264° |
| 2026-04-22 02:26 | 53.47124 | 116.32632 | 38047 ft | 462 kts | 264° |
| 2026-04-22 02:26 | 53.46313 | 116.21927 | 38049 ft | 462 kts | 264° |
| 2026-04-22 02:27 | 53.45495 | 116.11228 | 38042 ft | 462 kts | 263° |
| 2026-04-22 02:27 | 53.44673 | 116.00610 | 38044 ft | 462 kts | 263° |
| 2026-04-22 02:28 | 53.43836 | 115.89931 | 38037 ft | 461 kts | 264° |
| 2026-04-22 02:28 | 53.42989 | 115.79270 | 38034 ft | 461 kts | 263° |
| 2026-04-22 02:29 | 53.42136 | 115.68627 | 38047 ft | 460 kts | 263° |
| 2026-04-22 02:29 | 53.41274 | 115.57998 | 38049 ft | 460 kts | 263° |
| 2026-04-22 02:30 | 53.40402 | 115.47370 | 38042 ft | 460 kts | 263° |
| 2026-04-22 02:30 | 53.39522 | 115.36761 | 38035 ft | 460 kts | 263° |
| 2026-04-22 02:31 | 53.38631 | 115.26149 | 38031 ft | 460 kts | 263° |
| 2026-04-22 02:31 | 53.37730 | 115.15531 | 38009 ft | 460 kts | 263° |
| 2026-04-22 02:32 | 53.36821 | 115.04928 | 38011 ft | 460 kts | 263° |
| 2026-04-22 02:32 | 53.35902 | 114.94342 | 38013 ft | 459 kts | 263° |
| 2026-04-22 02:33 | 53.34975 | 114.83764 | 38008 ft | 459 kts | 263° |
| 2026-04-22 02:33 | 53.34042 | 114.73209 | 38001 ft | 458 kts | 263° |
| 2026-04-22 02:34 | 53.33106 | 114.62747 | 38000 ft | 458 kts | 263° |
| 2026-04-22 02:34 | 53.32155 | 114.52226 | 37989 ft | 457 kts | 263° |
| 2026-04-22 02:35 | 53.31197 | 114.41731 | 37985 ft | 456 kts | 263° |
| 2026-04-22 02:35 | 53.30231 | 114.31249 | 37980 ft | 456 kts | 263° |
| 2026-04-22 02:36 | 53.29255 | 114.20763 | 37959 ft | 456 kts | 263° |
| 2026-04-22 02:36 | 53.28269 | 114.10287 | 37977 ft | 456 kts | 263° |
| 2026-04-22 02:37 | 53.27274 | 113.99818 | 37973 ft | 456 kts | 263° |
| 2026-04-22 02:37 | 53.26273 | 113.89371 | 37967 ft | 455 kts | 263° |
| 2026-04-22 02:38 | 53.25263 | 113.78927 | 37958 ft | 456 kts | 263° |
| 2026-04-22 02:38 | 53.24242 | 113.68480 | 37961 ft | 456 kts | 262° |
| 2026-04-22 02:39 | 53.23212 | 113.58044 | 37961 ft | 456 kts | 262° |
| 2026-04-22 02:39 | 53.22174 | 113.47609 | 37948 ft | 455 kts | 262° |
| 2026-04-22 02:40 | 53.21127 | 113.37201 | 37957 ft | 455 kts | 262° |
| 2026-04-22 02:40 | 53.20073 | 113.26802 | 37946 ft | 453 kts | 262° |
| 2026-04-22 02:41 | 53.19020 | 113.16519 | 37950 ft | 453 kts | 262° |
| 2026-04-22 02:41 | 53.17946 | 113.06105 | 37951 ft | 452 kts | 262° |
| 2026-04-22 02:42 | 53.16879 | 112.95860 | 37958 ft | 451 kts | 262° |
| 2026-04-22 02:42 | 53.15796 | 112.85558 | 37954 ft | 451 kts | 262° |
| 2026-04-22 02:43 | 53.14708 | 112.75281 | 37965 ft | 451 kts | 262° |
| 2026-04-22 02:43 | 53.13609 | 112.65004 | 37970 ft | 451 kts | 262° |
| 2026-04-22 02:44 | 53.12501 | 112.54719 | 37967 ft | 451 kts | 262° |
| 2026-04-22 02:44 | 53.11383 | 112.44443 | 37964 ft | 450 kts | 262° |
| 2026-04-22 02:45 | 53.10260 | 112.34205 | 37971 ft | 450 kts | 262° |
| 2026-04-22 02:45 | 53.09130 | 112.23981 | 37978 ft | 449 kts | 262° |
| 2026-04-22 02:46 | 53.07991 | 112.13764 | 37981 ft | 449 kts | 262° |
| 2026-04-22 02:46 | 53.07039 | 112.05288 | 37983 ft | 448 kts | 262° |
| 2026-04-22 02:47 | 53.05886 | 111.95091 | 37986 ft | 449 kts | 262° |
| 2026-04-22 02:47 | 53.04724 | 111.84900 | 37990 ft | 449 kts | 262° |
| 2026-04-22 02:48 | 53.03360 | 111.73059 | 37985 ft | 449 kts | 262° |
| 2026-04-22 02:48 | 53.02180 | 111.62881 | 37987 ft | 449 kts | 262° |
| 2026-04-22 02:49 | 53.01185 | 111.54368 | 38000 ft | 448 kts | 262° |
| 2026-04-22 02:49 | 52.99990 | 111.44220 | 37996 ft | 448 kts | 262° |
| 2026-04-22 02:50 | 52.98787 | 111.34076 | 37995 ft | 448 kts | 262° |
| 2026-04-22 02:50 | 52.97585 | 111.24019 | 38002 ft | 447 kts | 262° |
| 2026-04-22 02:51 | 52.96367 | 111.13909 | 37998 ft | 446 kts | 262° |
| 2026-04-22 02:51 | 52.95145 | 111.03820 | 38004 ft | 446 kts | 262° |
| 2026-04-22 02:52 | 52.93914 | 110.93743 | 38006 ft | 446 kts | 261° |
| 2026-04-22 02:52 | 52.92672 | 110.83664 | 37996 ft | 446 kts | 261° |
| 2026-04-22 02:53 | 52.91425 | 110.73599 | 37979 ft | 445 kts | 262° |
| 2026-04-22 02:53 | 52.90172 | 110.63558 | 37997 ft | 445 kts | 262° |
| 2026-04-22 02:54 | 52.88912 | 110.53516 | 37991 ft | 445 kts | 262° |
| 2026-04-22 02:54 | 52.87643 | 110.43488 | 37986 ft | 445 kts | 261° |
| 2026-04-22 02:55 | 52.86367 | 110.33474 | 37992 ft | 444 kts | 261° |
| 2026-04-22 02:55 | 52.85082 | 110.23455 | 37989 ft | 445 kts | 261° |
| 2026-04-22 02:56 | 52.83788 | 110.13446 | 37994 ft | 445 kts | 261° |
| 2026-04-22 02:56 | 52.82486 | 110.03440 | 37989 ft | 445 kts | 261° |
| 2026-04-22 02:57 | 52.81175 | 109.93425 | 37983 ft | 446 kts | 261° |
| 2026-04-22 02:57 | 52.79852 | 109.83440 | 37968 ft | 444 kts | 261° |
| 2026-04-22 02:58 | 52.78532 | 109.73562 | 37976 ft | 442 kts | 261° |
| 2026-04-22 02:58 | 52.77203 | 109.63669 | 37972 ft | 441 kts | 261° |
| 2026-04-22 02:59 | 52.75870 | 109.53801 | 37971 ft | 440 kts | 261° |
| 2026-04-22 02:59 | 52.74532 | 109.43962 | 37978 ft | 439 kts | 261° |
| 2026-04-22 03:00 | 52.73188 | 109.34142 | 37986 ft | 439 kts | 261° |
| 2026-04-22 03:00 | 52.71835 | 109.24317 | 37969 ft | 439 kts | 261° |
| 2026-04-22 03:01 | 52.70473 | 109.14507 | 37979 ft | 439 kts | 261° |
| 2026-04-22 03:01 | 52.69102 | 109.04694 | 37965 ft | 439 kts | 261° |
| 2026-04-22 03:02 | 52.67726 | 108.94911 | 37972 ft | 438 kts | 261° |
| 2026-04-22 03:02 | 52.66341 | 108.85119 | 37958 ft | 438 kts | 261° |
| 2026-04-22 03:03 | 52.64955 | 108.75383 | 37967 ft | 437 kts | 261° |
| 2026-04-22 03:03 | 52.63568 | 108.65700 | 37969 ft | 437 kts | 260° |
| 2026-04-22 03:04 | 52.62165 | 108.55974 | 37970 ft | 436 kts | 260° |
| 2026-04-22 03:04 | 52.60757 | 108.46272 | 37961 ft | 436 kts | 260° |
| 2026-04-22 03:05 | 52.59341 | 108.36573 | 37957 ft | 436 kts | 260° |
| 2026-04-22 03:05 | 52.57918 | 108.26894 | 37959 ft | 436 kts | 260° |
| 2026-04-22 03:06 | 52.56485 | 108.17201 | 37966 ft | 437 kts | 260° |
| 2026-04-22 03:06 | 52.55042 | 108.07496 | 37948 ft | 437 kts | 260° |
| 2026-04-22 03:07 | 52.53590 | 107.97797 | 37947 ft | 437 kts | 260° |
| 2026-04-22 03:07 | 52.52130 | 107.88105 | 37953 ft | 437 kts | 260° |
| 2026-04-22 03:08 | 52.50660 | 107.78407 | 37955 ft | 437 kts | 260° |
| 2026-04-22 03:08 | 52.49194 | 107.68787 | 37957 ft | 438 kts | 260° |
| 2026-04-22 03:09 | 52.47709 | 107.59107 | 37945 ft | 437 kts | 260° |
| 2026-04-22 03:09 | 52.46215 | 107.49429 | 37962 ft | 438 kts | 260° |
| 2026-04-22 03:10 | 52.44716 | 107.39762 | 37946 ft | 437 kts | 260° |
| 2026-04-22 03:10 | 52.43211 | 107.30117 | 37970 ft | 437 kts | 259° |
| 2026-04-22 03:11 | 52.41698 | 107.20481 | 37973 ft | 437 kts | 259° |
| 2026-04-22 03:11 | 52.40177 | 107.10857 | 38015 ft | 436 kts | 260° |
| 2026-04-22 03:12 | 52.38650 | 107.01254 | 38002 ft | 436 kts | 260° |
| 2026-04-22 03:12 | 52.37104 | 106.91548 | 37027 ft | 440 kts | 260° |
| 2026-04-22 03:12 | 52.36337 | 106.86771 | 36267 ft | 438 kts | 260° |
| 2026-04-22 03:13 | 52.35554 | 106.81914 | 35441 ft | 437 kts | 260° |
| 2026-04-22 03:13 | 52.34782 | 106.77132 | 34673 ft | 434 kts | 260° |
| 2026-04-22 03:13 | 52.34019 | 106.72427 | 33948 ft | 431 kts | 260° |
| 2026-04-22 03:13 | 52.33255 | 106.67727 | 33183 ft | 425 kts | 261° |
| 2026-04-22 03:14 | 52.32497 | 106.63071 | 32152 ft | 425 kts | 261° |
| 2026-04-22 03:14 | 52.31736 | 106.58381 | 31007 ft | 427 kts | 261° |
| 2026-04-22 03:14 | 52.30971 | 106.53710 | 30212 ft | 423 kts | 261° |
| 2026-04-22 03:14 | 52.30199 | 106.49139 | 29364 ft | 410 kts | 260° |
| 2026-04-22 03:15 | 52.29260 | 106.44809 | 28661 ft | 401 kts | 255° |
| 2026-04-22 03:15 | 52.28140 | 106.40651 | 28018 ft | 399 kts | 253° |
| 2026-04-22 03:15 | 52.27002 | 106.36549 | 27355 ft | 395 kts | 253° |
| 2026-04-22 03:15 | 52.25914 | 106.32455 | 26696 ft | 391 kts | 254° |
| 2026-04-22 03:16 | 52.24895 | 106.28375 | 26045 ft | 387 kts | 255° |
| 2026-04-22 03:16 | 52.23945 | 106.24291 | 25417 ft | 383 kts | 256° |
| 2026-04-22 03:16 | 52.23026 | 106.20225 | 24797 ft | 381 kts | 256° |
| 2026-04-22 03:16 | 52.22097 | 106.16189 | 24180 ft | 379 kts | 255° |
| 2026-04-22 03:17 | 52.21143 | 106.12188 | 23554 ft | 378 kts | 254° |
| 2026-04-22 03:17 | 52.20169 | 106.08221 | 22841 ft | 376 kts | 253° |
| 2026-04-22 03:17 | 52.19185 | 106.04287 | 22215 ft | 373 kts | 253° |
| 2026-04-22 03:17 | 52.18205 | 106.00391 | 21610 ft | 370 kts | 253° |
| 2026-04-22 03:18 | 52.17233 | 105.96528 | 21008 ft | 367 kts | 253° |
| 2026-04-22 03:18 | 52.16270 | 105.92694 | 20375 ft | 364 kts | 253° |
| 2026-04-22 03:18 | 52.15315 | 105.88886 | 19811 ft | 362 kts | 253° |
| 2026-04-22 03:18 | 52.14368 | 105.85104 | 19242 ft | 360 kts | 253° |
| 2026-04-22 03:19 | 52.13424 | 105.81330 | 18664 ft | 359 kts | 253° |
| 2026-04-22 03:19 | 52.12483 | 105.77574 | 18054 ft | 358 kts | 253° |
| 2026-04-22 03:19 | 52.11554 | 105.73877 | 17420 ft | 357 kts | 252° |
| 2026-04-22 03:19 | 52.10616 | 105.70152 | 16815 ft | 355 kts | 252° |
| 2026-04-22 03:20 | 52.09682 | 105.66450 | 16231 ft | 353 kts | 252° |
| 2026-04-22 03:20 | 52.08751 | 105.62768 | 15646 ft | 351 kts | 252° |
| 2026-04-22 03:20 | 52.07822 | 105.59098 | 15074 ft | 350 kts | 252° |
| 2026-04-22 03:20 | 52.06897 | 105.55446 | 14509 ft | 349 kts | 252° |
| 2026-04-22 03:21 | 52.05973 | 105.51804 | 13944 ft | 348 kts | 252° |
| 2026-04-22 03:21 | 52.05048 | 105.48166 | 13316 ft | 348 kts | 252° |
| 2026-04-22 03:21 | 52.04153 | 105.44547 | 12703 ft | 339 kts | 255° |
| 2026-04-22 03:21 | 52.03758 | 105.40900 | 12146 ft | 324 kts | 274° |
| 2026-04-22 03:22 | 52.04161 | 105.37336 | 11644 ft | 321 kts | 286° |
| 2026-04-22 03:22 | 52.04848 | 105.33900 | 11100 ft | 320 kts | 288° |
| 2026-04-22 03:22 | 52.05550 | 105.30581 | 10847 ft | 298 kts | 287° |
| 2026-04-22 03:22 | 52.06148 | 105.27458 | 10691 ft | 284 kts | 285° |
| 2026-04-22 03:23 | 52.06674 | 105.24420 | 10562 ft | 275 kts | 284° |
| 2026-04-22 03:23 | 52.07179 | 105.21475 | 10441 ft | 266 kts | 284° |
| 2026-04-22 03:23 | 52.07673 | 105.18634 | 10326 ft | 256 kts | 284° |
| 2026-04-22 03:23 | 52.08157 | 105.15903 | 10232 ft | 247 kts | 285° |
| 2026-04-22 03:24 | 52.08628 | 105.13272 | 10129 ft | 238 kts | 284° |
| 2026-04-22 03:24 | 52.09085 | 105.10737 | 10026 ft | 229 kts | 284° |
| 2026-04-22 03:24 | 52.09529 | 105.08281 | 9836 ft | 226 kts | 284° |
| 2026-04-22 03:24 | 52.09976 | 105.05813 | 9563 ft | 230 kts | 284° |
| 2026-04-22 03:25 | 52.10436 | 105.03273 | 9248 ft | 239 kts | 285° |
| 2026-04-22 03:25 | 52.10910 | 105.00654 | 8930 ft | 243 kts | 285° |
| 2026-04-22 03:25 | 52.11386 | 104.98019 | 8606 ft | 242 kts | 285° |
| 2026-04-22 03:25 | 52.11880 | 104.95409 | 8287 ft | 241 kts | 288° |
| 2026-04-22 03:26 | 52.12462 | 104.92853 | 7962 ft | 240 kts | 291° |
| 2026-04-22 03:26 | 52.13100 | 104.90352 | 7657 ft | 239 kts | 292° |
| 2026-04-22 03:26 | 52.13759 | 104.87878 | 7382 ft | 236 kts | 293° |
| 2026-04-22 03:26 | 52.14416 | 104.85436 | 7402 ft | 238 kts | 293° |
| 2026-04-22 03:27 | 52.15082 | 104.82961 | 7401 ft | 238 kts | 293° |
| 2026-04-22 03:27 | 52.15732 | 104.80551 | 7392 ft | 234 kts | 292° |
| 2026-04-22 03:27 | 52.16376 | 104.78147 | 7203 ft | 232 kts | 292° |
| 2026-04-22 03:27 | 52.17031 | 104.75699 | 6866 ft | 233 kts | 293° |
| 2026-04-22 03:28 | 52.17653 | 104.73376 | 6521 ft | 220 kts | 293° |
| 2026-04-22 03:28 | 52.18246 | 104.71157 | 6185 ft | 208 kts | 294° |
| 2026-04-22 03:28 | 52.18820 | 104.69011 | 5889 ft | 206 kts | 294° |
| 2026-04-22 03:28 | 52.19389 | 104.66883 | 5561 ft | 200 kts | 295° |
| 2026-04-22 03:29 | 52.19932 | 104.64852 | 5299 ft | 192 kts | 296° |
| 2026-04-22 03:29 | 52.20456 | 104.62892 | 5013 ft | 183 kts | 296° |
| 2026-04-22 03:29 | 52.20943 | 104.61069 | 4705 ft | 169 kts | 297° |
| 2026-04-22 03:29 | 52.21387 | 104.59408 | 4426 ft | 149 kts | 297° |
| 2026-04-22 03:30 | 52.21779 | 104.57948 | 4224 ft | 139 kts | 297° |
| 2026-04-22 03:30 | 52.22166 | 104.56500 | 4021 ft | 140 kts | 297° |
| 2026-04-22 03:30 | 52.22553 | 104.55056 | 3796 ft | 137 kts | 297° |
| 2026-04-22 03:30 | 52.22930 | 104.53646 | 3577 ft | 136 kts | 297° |
| 2026-04-22 03:31 | 52.23308 | 104.52233 | 3385 ft | 135 kts | 297° |
| 2026-04-22 03:31 | 52.23679 | 104.50843 | 3177 ft | 132 kts | 297° |
| 2026-04-22 03:31 | 52.24047 | 104.49460 | 2973 ft | 135 kts | 296° |
| 2026-04-22 03:31 | 52.24424 | 104.48055 | 2748 ft | 134 kts | 296° |
| 2026-04-22 03:32 | 52.24790 | 104.46677 | 2525 ft | 132 kts | 297° |
| 2026-04-22 03:32 | 52.25167 | 104.45263 | 2322 ft | 140 kts | 294° |
| 2026-04-22 03:32 | 52.25562 | 104.43784 | 2087 ft | 142 kts | 294° |
| 2026-04-22 03:32 | 52.25957 | 104.42310 | 1836 ft | 143 kts | 294° |
| 2026-04-22 03:33 | 52.26350 | 104.40823 | 1698 ft | 141 kts | 293° |
| 2026-04-22 03:33 | 52.26702 | 104.39517 | 1642 ft | 102 kts | 294° |
| 2026-04-22 03:33 | 52.26910 | 104.38735 | 1620 ft | 49 kts | 293° |
| 2026-04-22 03:33 | 52.26985 | 104.38454 | 1616 ft | 19 kts | 293° |
| 2026-04-22 03:34 | 52.27040 | 104.38248 | 1609 ft | 20 kts | 293° |
| 2026-04-22 03:34 | 52.27099 | 104.38027 | 1599 ft | 22 kts | 293° |
| 2026-04-22 03:34 | 52.27158 | 104.37805 | 1595 ft | 16 kts | 294° |
| 2026-04-22 03:34 | 52.27178 | 104.37620 | 1593 ft | 17 kts | 244° |
| 2026-04-22 03:35 | 52.27105 | 104.37457 | 1591 ft | 18 kts | 233° |
| 2026-04-22 03:35 | 52.27037 | 104.37302 | 1590 ft | 17 kts | 234° |
| 2026-04-22 03:35 | 52.26992 | 104.37156 | 1590 ft | 14 kts | 269° |
| 2026-04-22 03:35 | 52.27006 | 104.37060 | 1589 ft | 10 kts | 289° |
| 2026-04-22 03:36 | 52.27027 | 104.36961 | 1589 ft | 9 kts | 289° |
| 2026-04-22 03:36 | 52.27049 | 104.36861 | 1589 ft | 9 kts | 290° |
| 2026-04-22 03:36 | 52.27071 | 104.36762 | 1590 ft | 9 kts | 290° |
| 2026-04-22 03:36 | 52.27080 | 104.36722 | 1590 ft | 0 kts | 290° |
| 2026-04-22 03:38 | 52.27080 | 104.36723 | 1590 ft | 0 kts | 290° |
| 2026-04-22 03:38 | 52.27078 | 104.36736 | 1590 ft | 2 kts | 267° |
| 2026-04-22 03:38 | 52.27079 | 104.36754 | 1590 ft | 2 kts | 243° |
| 2026-04-22 03:38 | 52.27085 | 104.36768 | 1592 ft | 2 kts | 221° |
| 2026-04-22 03:39 | 52.27094 | 104.36779 | 1593 ft | 2 kts | 202° |
| 2026-04-22 03:39 | 52.27104 | 104.36786 | 1593 ft | 2 kts | 193° |
| 2026-04-22 03:39 | 52.27115 | 104.36790 | 1590 ft | 2 kts | 200° |
| 2026-04-22 03:39 | 52.27125 | 104.36796 | 1590 ft | 2 kts | 200° |
| 2026-04-22 03:40 | 52.27130 | 104.36800 | 1592 ft | 0 kts | 200° |